Impacts TAF Board INFO
FOR SITUATIONAL AWARENESS. NOT TO BE USED FOR FLIGHT PLANNING PURPOSES.
IDs:

KSLC - Salt Lake City Intl, UT, US

Issued at 1459 UTC 23 Jun 2018
Updated at 1533 UTC 23 Jun 2018
Potential Impact None Slight Moderate High
Time<<24/16Z 24/17Z 24/18Z 24/19Z 24/20Z 24/21Z 24/22Z 24/23Z 25/00Z 25/01Z 25/02Z 25/03Z 25/04Z
Type PRVL PRVL
VIS >6 >6
CIG -- --
Cover FEW FEW
FltCat VFR VFR
WX -- --
WDir 150 150
WSpd 6 6
WGst -- --

Raw TAF
KSLC 231459Z 2315/2418 14007KT P6SM SCT150
  FM231700 30010KT P6SM SCT080 SCT150
  FM231900 33012G18KT P6SM SCT080
  FM232000 35018G25KT P6SM SCT080
  FM240500 15006KT P6SM FEW120


METAR Board
Radar Display
Forecast Discussion

FOR SITUATIONAL AWARENESS. NOT TO BE USED FOR FLIGHT PLANNING PURPOSES.